sensor_id;sensor_type;location;lat;lon;timestamp;pressure;altitude;pressure_sealevel;temperature;humidity
72061;BME280;59925;52.136;5.420;2023-08-08T00:02:11;101557.44;;;13.76;98.34
72061;BME280;59925;52.136;5.420;2023-08-08T00:04:38;101562.56;;;13.77;98.61
72061;BME280;59925;52.136;5.420;2023-08-08T00:07:04;101563.88;;;13.80;98.82
72061;BME280;59925;52.136;5.420;2023-08-08T00:09:31;101546.38;;;13.83;98.49
72061;BME280;59925;52.136;5.420;2023-08-08T00:11:57;101553.91;;;13.86;98.71
72061;BME280;59925;52.136;5.420;2023-08-08T00:14:24;101549.59;;;13.85;98.57
72061;BME280;59925;52.136;5.420;2023-08-08T00:16:51;101556.06;;;13.89;98.60
72061;BME280;59925;52.136;5.420;2023-08-08T00:19:17;101551.47;;;13.89;98.60
72061;BME280;59925;52.136;5.420;2023-08-08T00:21:44;101554.97;;;13.90;98.95
72061;BME280;59925;52.136;5.420;2023-08-08T00:24:11;101553.06;;;13.90;99.22
72061;BME280;59925;52.136;5.420;2023-08-08T00:26:37;101546.59;;;13.91;99.33
72061;BME280;59925;52.136;5.420;2023-08-08T00:29:04;101553.06;;;13.95;99.22
72061;BME280;59925;52.136;5.420;2023-08-08T00:31:30;101541.19;;;13.97;99.08
72061;BME280;59925;52.136;5.420;2023-08-08T00:33:57;101545.50;;;13.98;99.05
72061;BME280;59925;52.136;5.420;2023-08-08T00:36:23;101540.66;;;14.00;98.89
72061;BME280;59925;52.136;5.420;2023-08-08T00:38:50;101536.34;;;13.99;99.19
72061;BME280;59925;52.136;5.420;2023-08-08T00:41:16;101543.34;;;14.00;99.31
72061;BME280;59925;52.136;5.420;2023-08-08T00:43:43;101545.22;;;13.99;99.45
72061;BME280;59925;52.136;5.420;2023-08-08T00:46:10;101543.06;;;14.01;99.41
72061;BME280;59925;52.136;5.420;2023-08-08T00:48:37;101536.88;;;14.01;99.29
72061;BME280;59925;52.136;5.420;2023-08-08T00:51:04;101530.97;;;13.99;99.37
72061;BME280;59925;52.136;5.420;2023-08-08T00:53:31;101529.88;;;14.00;99.68
72061;BME280;59925;52.136;5.420;2023-08-08T00:55:58;101529.31;;;14.03;99.41
72061;BME280;59925;52.136;5.420;2023-08-08T00:58:26;101528.22;;;14.04;99.32
72061;BME280;59925;52.136;5.420;2023-08-08T01:00:52;101535.22;;;14.05;99.44
72061;BME280;59925;52.136;5.420;2023-08-08T01:03:21;101527.16;;;14.05;100.00
72061;BME280;59925;52.136;5.420;2023-08-08T01:05:53;101524.19;;;14.06;99.99
72061;BME280;59925;52.136;5.420;2023-08-08T01:08:22;101522.28;;;14.07;100.00
72061;BME280;59925;52.136;5.420;2023-08-08T01:10:52;101522.03;;;14.08;100.00
72061;BME280;59925;52.136;5.420;2023-08-08T01:13:21;101520.66;;;14.11;100.00
72061;BME280;59925;52.136;5.420;2023-08-08T01:15:49;101519.28;;;14.14;100.00
72061;BME280;59925;52.136;5.420;2023-08-08T01:18:16;101520.13;;;14.14;100.00
72061;BME280;59925;52.136;5.420;2023-08-08T01:20:44;101527.66;;;14.12;100.00
72061;BME280;59925;52.136;5.420;2023-08-08T01:23:33;101523.06;;;14.13;100.00
72061;BME280;59925;52.136;5.420;2023-08-08T01:26:01;101522.28;;;14.12;100.00
72061;BME280;59925;52.136;5.420;2023-08-08T01:28:28;101515.81;;;14.13;100.00
72061;BME280;59925;52.136;5.420;2023-08-08T01:30:54;101522.00;;;14.14;100.00
72061;BME280;59925;52.136;5.420;2023-08-08T01:33:21;101526.31;;;14.15;100.00
72061;BME280;59925;52.136;5.420;2023-08-08T01:36:03;101526.31;;;14.15;100.00
72061;BME280;59925;52.136;5.420;2023-08-08T01:38:39;101521.44;;;14.17;100.00
72061;BME280;59925;52.136;5.420;2023-08-08T01:41:07;101519.03;;;14.10;100.00
72061;BME280;59925;52.136;5.420;2023-08-08T01:43:37;101521.22;;;14.08;100.00
72061;BME280;59925;52.136;5.420;2023-08-08T01:46:04;101514.72;;;14.09;100.00
72061;BME280;59925;52.136;5.420;2023-08-08T01:48:32;101512.03;;;14.09;100.00
72061;BME280;59925;52.136;5.420;2023-08-08T01:50:59;101511.50;;;14.07;100.00
72061;BME280;59925;52.136;5.420;2023-08-08T01:53:26;101509.88;;;14.06;100.00
72061;BME280;59925;52.136;5.420;2023-08-08T01:55:52;101506.13;;;14.07;100.00
72061;BME280;59925;52.136;5.420;2023-08-08T01:58:19;101497.50;;;14.05;100.00
72061;BME280;59925;52.136;5.420;2023-08-08T02:00:45;101495.09;;;14.03;100.00
72061;BME280;59925;52.136;5.420;2023-08-08T02:03:13;101498.06;;;14.02;100.00
72061;BME280;59925;52.136;5.420;2023-08-08T02:05:40;101498.31;;;14.00;100.00
72061;BME280;59925;52.136;5.420;2023-08-08T02:08:06;101509.94;;;14.01;100.00
72061;BME280;59925;52.136;5.420;2023-08-08T02:10:33;101495.38;;;14.02;100.00
72061;BME280;59925;52.136;5.420;2023-08-08T02:12:59;101500.75;;;14.02;100.00
72061;BME280;59925;52.136;5.420;2023-08-08T02:15:26;101492.38;;;14.03;100.00
72061;BME280;59925;52.136;5.420;2023-08-08T02:17:52;101488.88;;;14.03;100.00
72061;BME280;59925;52.136;5.420;2023-08-08T02:20:19;101487.78;;;14.04;100.00
72061;BME280;59925;52.136;5.420;2023-08-08T02:22:45;101487.00;;;14.03;100.00
72061;BME280;59925;52.136;5.420;2023-08-08T02:25:12;101492.09;;;14.05;100.00
72061;BME280;59925;52.136;5.420;2023-08-08T02:27:38;101481.31;;;14.05;100.00
72061;BME280;59925;52.136;5.420;2023-08-08T02:30:05;101489.41;;;14.05;100.00
72061;BME280;59925;52.136;5.420;2023-08-08T02:32:32;101484.84;;;14.05;100.00
72061;BME280;59925;52.136;5.420;2023-08-08T02:34:59;101483.75;;;14.01;100.00
72061;BME280;59925;52.136;5.420;2023-08-08T02:37:25;101483.75;;;14.01;100.00
72061;BME280;59925;52.136;5.420;2023-08-08T02:39:52;101480.28;;;14.01;100.00
72061;BME280;59925;52.136;5.420;2023-08-08T02:42:18;101482.16;;;14.00;100.00
72061;BME280;59925;52.136;5.420;2023-08-08T02:44:45;101478.66;;;14.00;100.00
72061;BME280;59925;52.136;5.420;2023-08-08T02:47:11;101482.69;;;13.97;100.00
72061;BME280;59925;52.136;5.420;2023-08-08T02:49:38;101481.91;;;13.91;100.00
72061;BME280;59925;52.136;5.420;2023-08-08T02:52:04;101480.06;;;13.87;100.00
72061;BME280;59925;52.136;5.420;2023-08-08T02:54:31;101479.50;;;13.85;100.00
72061;BME280;59925;52.136;5.420;2023-08-08T02:56:57;101476.31;;;13.83;100.00
72061;BME280;59925;52.136;5.420;2023-08-08T02:59:24;101480.09;;;13.82;100.00
72061;BME280;59925;52.136;5.420;2023-08-08T03:01:50;101478.47;;;13.81;100.00
72061;BME280;59925;52.136;5.420;2023-08-08T03:04:17;101470.38;;;13.81;100.00
72061;BME280;59925;52.136;5.420;2023-08-08T03:06:43;101474.94;;;13.80;100.00
72061;BME280;59925;52.136;5.420;2023-08-08T03:09:10;101471.72;;;13.78;100.00
72061;BME280;59925;52.136;5.420;2023-08-08T03:11:36;101469.59;;;13.75;100.00
72061;BME280;59925;52.136;5.420;2023-08-08T03:14:03;101476.59;;;13.76;100.00
72061;BME280;59925;52.136;5.420;2023-08-08T03:16:30;101471.22;;;13.76;100.00
72061;BME280;59925;52.136;5.420;2023-08-08T03:18:56;101469.03;;;13.78;100.00
72061;BME280;59925;52.136;5.420;2023-08-08T03:21:23;101462.56;;;13.79;100.00
72061;BME280;59925;52.136;5.420;2023-08-08T03:23:49;101470.94;;;13.77;100.00
72061;BME280;59925;52.136;5.420;2023-08-08T03:26:16;101471.72;;;13.78;100.00
72061;BME280;59925;52.136;5.420;2023-08-08T03:28:42;101466.06;;;13.79;100.00
72061;BME280;59925;52.136;5.420;2023-08-08T03:31:09;101461.47;;;13.80;100.00
72061;BME280;59925;52.136;5.420;2023-08-08T03:33:35;101466.88;;;13.80;100.00
72061;BME280;59925;52.136;5.420;2023-08-08T03:36:02;101467.41;;;13.77;100.00
72061;BME280;59925;52.136;5.420;2023-08-08T03:38:28;101466.34;;;13.78;100.00
72061;BME280;59925;52.136;5.420;2023-08-08T03:40:55;101459.88;;;13.79;100.00
72061;BME280;59925;52.136;5.420;2023-08-08T03:43:21;101459.31;;;13.77;100.00
72061;BME280;59925;52.136;5.420;2023-08-08T03:45:48;101455.06;;;13.76;100.00
72061;BME280;59925;52.136;5.420;2023-08-08T03:48:15;101452.34;;;13.76;100.00
72061;BME280;59925;52.136;5.420;2023-08-08T03:50:41;101450.75;;;13.75;100.00
72061;BME280;59925;52.136;5.420;2023-08-08T03:53:08;101450.47;;;13.71;100.00
72061;BME280;59925;52.136;5.420;2023-08-08T03:55:34;101451.56;;;13.65;100.00
72061;BME280;59925;52.136;5.420;2023-08-08T03:58:01;101451.84;;;13.63;100.00
72061;BME280;59925;52.136;5.420;2023-08-08T04:00:27;101448.63;;;13.61;100.00
72061;BME280;59925;52.136;5.420;2023-08-08T04:02:54;101453.19;;;13.61;100.00
72061;BME280;59925;52.136;5.420;2023-08-08T04:05:21;101447.03;;;13.60;100.00
72061;BME280;59925;52.136;5.420;2023-08-08T04:07:47;101446.47;;;13.58;100.00
72061;BME280;59925;52.136;5.420;2023-08-08T04:10:13;101437.06;;;13.56;100.00
72061;BME280;59925;52.136;5.420;2023-08-08T04:12:40;101445.41;;;13.54;100.00
72061;BME280;59925;52.136;5.420;2023-08-08T04:15:07;101443.53;;;13.49;100.00
72061;BME280;59925;52.136;5.420;2023-08-08T04:17:33;101439.22;;;13.48;100.00
72061;BME280;59925;52.136;5.420;2023-08-08T04:20:00;101443.28;;;13.46;100.00
72061;BME280;59925;52.136;5.420;2023-08-08T04:22:26;101429.28;;;13.44;100.00
72061;BME280;59925;52.136;5.420;2023-08-08T04:24:53;101434.13;;;13.42;100.00
72061;BME280;59925;52.136;5.420;2023-08-08T04:27:19;101440.84;;;13.39;100.00
72061;BME280;59925;52.136;5.420;2023-08-08T04:29:46;101435.72;;;13.38;100.00
72061;BME280;59925;52.136;5.420;2023-08-08T04:32:12;101437.38;;;13.33;100.00
72061;BME280;59925;52.136;5.420;2023-08-08T04:34:39;101443.00;;;13.32;100.00
72061;BME280;59925;52.136;5.420;2023-08-08T04:37:05;101450.00;;;13.33;100.00
72061;BME280;59925;52.136;5.420;2023-08-08T04:39:32;101450.56;;;13.35;100.00
72061;BME280;59925;52.136;5.420;2023-08-08T04:41:58;101442.19;;;13.37;100.00
72061;BME280;59925;52.136;5.420;2023-08-08T04:44:25;101445.41;;;13.39;100.00
72061;BME280;59925;52.136;5.420;2023-08-08T04:46:52;101441.41;;;13.36;100.00
72061;BME280;59925;52.136;5.420;2023-08-08T04:49:18;101439.50;;;13.37;100.00
72061;BME280;59925;52.136;5.420;2023-08-08T04:51:45;101444.09;;;13.36;100.00
72061;BME280;59925;52.136;5.420;2023-08-08T04:54:11;101431.69;;;13.35;100.00
72061;BME280;59925;52.136;5.420;2023-08-08T04:56:37;101429.53;;;13.37;100.00
72061;BME280;59925;52.136;5.420;2023-08-08T04:59:04;101426.56;;;13.39;100.00
72061;BME280;59925;52.136;5.420;2023-08-08T05:01:30;101432.53;;;13.36;100.00
72061;BME280;59925;52.136;5.420;2023-08-08T05:03:57;101431.16;;;13.38;100.00
72061;BME280;59925;52.136;5.420;2023-08-08T05:06:24;101423.38;;;13.42;100.00
72061;BME280;59925;52.136;5.420;2023-08-08T05:08:51;101432.53;;;13.41;100.00
72061;BME280;59925;52.136;5.420;2023-08-08T05:11:18;101427.13;;;13.41;100.00
72061;BME280;59925;52.136;5.420;2023-08-08T05:13:45;101433.84;;;13.43;100.00
72061;BME280;59925;52.136;5.420;2023-08-08T05:16:11;101438.44;;;13.48;100.00
72061;BME280;59925;52.136;5.420;2023-08-08T05:18:38;101439.78;;;13.51;100.00
72061;BME280;59925;52.136;5.420;2023-08-08T05:21:04;101439.47;;;13.57;100.00
72061;BME280;59925;52.136;5.420;2023-08-08T05:23:31;101437.84;;;13.61;100.00
72061;BME280;59925;52.136;5.420;2023-08-08T05:25:57;101436.50;;;13.59;100.00
72061;BME280;59925;52.136;5.420;2023-08-08T05:28:24;101445.94;;;13.61;100.00
72061;BME280;59925;52.136;5.420;2023-08-08T05:30:50;101448.50;;;13.92;100.00
72061;BME280;59925;52.136;5.420;2023-08-08T05:33:17;101449.25;;;13.98;100.00
72061;BME280;59925;52.136;5.420;2023-08-08T05:35:44;101443.56;;;14.05;100.00
72061;BME280;59925;52.136;5.420;2023-08-08T05:38:10;101445.97;;;15.45;100.00
72061;BME280;59925;52.136;5.420;2023-08-08T05:40:37;101449.28;;;15.12;94.81
72061;BME280;59925;52.136;5.420;2023-08-08T05:43:03;101441.47;;;15.35;95.74
72061;BME280;59925;52.136;5.420;2023-08-08T05:45:30;101443.53;;;16.30;94.86
72061;BME280;59925;52.136;5.420;2023-08-08T05:47:58;101452.34;;;18.05;88.17
72061;BME280;59925;52.136;5.420;2023-08-08T05:50:27;101445.78;;;19.20;82.59
72061;BME280;59925;52.136;5.420;2023-08-08T05:52:54;101445.53;;;19.97;78.43
72061;BME280;59925;52.136;5.420;2023-08-08T05:55:21;101447.94;;;20.51;75.05
72061;BME280;59925;52.136;5.420;2023-08-08T05:57:47;101446.91;;;20.91;73.04
72061;BME280;59925;52.136;5.420;2023-08-08T06:00:14;101455.69;;;21.05;70.27
72061;BME280;59925;52.136;5.420;2023-08-08T06:02:40;101453.34;;;21.25;69.69
72061;BME280;59925;52.136;5.420;2023-08-08T06:05:07;101452.50;;;21.42;68.54
72061;BME280;59925;52.136;5.420;2023-08-08T06:07:34;101448.66;;;21.43;66.86
72061;BME280;59925;52.136;5.420;2023-08-08T06:10:01;101445.06;;;21.51;66.49
72061;BME280;59925;52.136;5.420;2023-08-08T06:12:27;101452.09;;;21.61;65.64
72061;BME280;59925;52.136;5.420;2023-08-08T06:14:54;101457.13;;;21.80;64.33
72061;BME280;59925;52.136;5.420;2023-08-08T06:17:20;101455.91;;;21.69;64.55
72061;BME280;59925;52.136;5.420;2023-08-08T06:19:49;101456.38;;;21.32;64.31
72061;BME280;59925;52.136;5.420;2023-08-08T06:22:16;101462.72;;;21.45;64.25
72061;BME280;59925;52.136;5.420;2023-08-08T06:24:43;101462.28;;;21.43;63.52
72061;BME280;59925;52.136;5.420;2023-08-08T06:27:10;101466.59;;;21.44;63.83
72061;BME280;59925;52.136;5.420;2023-08-08T06:29:36;101463.00;;;20.40;63.50
72061;BME280;59925;52.136;5.420;2023-08-08T06:32:03;101474.03;;;19.10;66.13
72061;BME280;59925;52.136;5.420;2023-08-08T06:34:30;101475.47;;;18.39;69.09
72061;BME280;59925;52.136;5.420;2023-08-08T06:36:56;101471.94;;;18.02;71.58
72061;BME280;59925;52.136;5.420;2023-08-08T06:39:23;101472.72;;;17.88;72.78
72061;BME280;59925;52.136;5.420;2023-08-08T06:41:49;101466.31;;;17.70;73.67
72061;BME280;59925;52.136;5.420;2023-08-08T06:44:16;101466.94;;;17.67;75.07
72061;BME280;59925;52.136;5.420;2023-08-08T06:46:42;101473.38;;;17.57;75.75
72061;BME280;59925;52.136;5.420;2023-08-08T06:49:09;101469.84;;;17.57;76.90
72061;BME280;59925;52.136;5.420;2023-08-08T06:51:35;101471.03;;;17.37;76.35
72061;BME280;59925;52.136;5.420;2023-08-08T06:54:02;101467.44;;;17.27;75.62
72061;BME280;59925;52.136;5.420;2023-08-08T06:56:29;101467.75;;;17.26;75.72
72061;BME280;59925;52.136;5.420;2023-08-08T06:58:56;101470.22;;;17.22;74.46
72061;BME280;59925;52.136;5.420;2023-08-08T07:01:22;101467.63;;;17.17;75.38
72061;BME280;59925;52.136;5.420;2023-08-08T07:03:49;101469.22;;;17.18;74.14
72061;BME280;59925;52.136;5.420;2023-08-08T07:06:18;101478.66;;;17.21;74.14
72061;BME280;59925;52.136;5.420;2023-08-08T07:08:45;101467.03;;;17.34;74.94
72061;BME280;59925;52.136;5.420;2023-08-08T07:11:11;101473.34;;;17.43;74.25
72061;BME280;59925;52.136;5.420;2023-08-08T07:13:38;101468.75;;;17.44;73.87
72061;BME280;59925;52.136;5.420;2023-08-08T07:16:04;101468.75;;;17.44;73.54
72061;BME280;59925;52.136;5.420;2023-08-08T07:18:31;101467.53;;;17.50;72.64
72061;BME280;59925;52.136;5.420;2023-08-08T07:20:58;101463.22;;;17.49;72.96
72061;BME280;59925;52.136;5.420;2023-08-08T07:23:24;101467.25;;;17.66;73.82
72061;BME280;59925;52.136;5.420;2023-08-08T07:25:50;101462.53;;;17.57;71.71
72061;BME280;59925;52.136;5.420;2023-08-08T07:28:17;101457.09;;;17.57;71.96
72061;BME280;59925;52.136;5.420;2023-08-08T07:30:44;101460.00;;;17.61;71.79
72061;BME280;59925;52.136;5.420;2023-08-08T07:33:10;101444.25;;;17.63;70.02
72061;BME280;59925;52.136;5.420;2023-08-08T07:35:37;101450.59;;;17.58;70.86
72061;BME280;59925;52.136;5.420;2023-08-08T07:38:03;101453.47;;;17.76;71.67
72061;BME280;59925;52.136;5.420;2023-08-08T07:40:30;101446.66;;;17.79;70.92
72061;BME280;59925;52.136;5.420;2023-08-08T07:42:56;101449.25;;;17.98;70.13
72061;BME280;59925;52.136;5.420;2023-08-08T07:45:23;101453.16;;;18.05;69.74
72061;BME280;59925;52.136;5.420;2023-08-08T07:47:49;101442.84;;;17.80;68.35
72061;BME280;59925;52.136;5.420;2023-08-08T07:50:16;101445.91;;;18.01;69.41
72061;BME280;59925;52.136;5.420;2023-08-08T07:52:42;101441.31;;;18.01;68.77
72061;BME280;59925;52.136;5.420;2023-08-08T07:55:09;101435.28;;;18.04;67.02
72061;BME280;59925;52.136;5.420;2023-08-08T07:57:35;101438.47;;;18.06;66.55
72061;BME280;59925;52.136;5.420;2023-08-08T08:00:03;101441.50;;;18.28;66.82
72061;BME280;59925;52.136;5.420;2023-08-08T08:02:42;101447.94;;;18.54;66.13
72061;BME280;59925;52.136;5.420;2023-08-08T08:05:10;101442.28;;;18.65;67.73
72061;BME280;59925;52.136;5.420;2023-08-08T08:07:37;101445.97;;;18.69;65.74
72061;BME280;59925;52.136;5.420;2023-08-08T08:10:07;101442.50;;;18.54;65.23
72061;BME280;59925;52.136;5.420;2023-08-08T08:12:35;101443.00;;;18.57;63.79
72061;BME280;59925;52.136;5.420;2023-08-08T08:15:02;101436.84;;;18.65;63.20
72061;BME280;59925;52.136;5.420;2023-08-08T08:17:30;101439.25;;;18.66;64.59
72061;BME280;59925;52.136;5.420;2023-08-08T08:19:57;101429.59;;;18.83;63.37
72061;BME280;59925;52.136;5.420;2023-08-08T08:22:24;101428.25;;;18.94;64.46
72061;BME280;59925;52.136;5.420;2023-08-08T08:24:51;101428.16;;;19.08;63.28
72061;BME280;59925;52.136;5.420;2023-08-08T08:27:17;101431.03;;;19.03;62.28
72061;BME280;59925;52.136;5.420;2023-08-08T08:29:44;101443.13;;;18.97;62.58
72061;BME280;59925;52.136;5.420;2023-08-08T08:32:10;101441.94;;;18.89;63.50
72061;BME280;59925;52.136;5.420;2023-08-08T08:34:37;101439.47;;;18.79;61.96
72061;BME280;59925;52.136;5.420;2023-08-08T08:37:03;101430.28;;;18.89;61.93
72061;BME280;59925;52.136;5.420;2023-08-08T08:39:30;101446.19;;;18.81;62.26
72061;BME280;59925;52.136;5.420;2023-08-08T08:41:59;101435.47;;;18.76;61.52
72061;BME280;59925;52.136;5.420;2023-08-08T08:44:31;101444.09;;;19.01;61.45
72061;BME280;59925;52.136;5.420;2023-08-08T08:47:04;101441.66;;;19.22;60.47
72061;BME280;59925;52.136;5.420;2023-08-08T08:49:37;101443.84;;;19.11;59.77
72061;BME280;59925;52.136;5.420;2023-08-08T08:52:04;101443.78;;;19.03;59.48
72061;BME280;59925;52.136;5.420;2023-08-08T08:54:32;101445.28;;;19.09;59.90
72061;BME280;59925;52.136;5.420;2023-08-08T08:56:59;101450.91;;;18.90;59.38
72061;BME280;59925;52.136;5.420;2023-08-08T08:59:26;101441.97;;;18.66;59.81
72061;BME280;59925;52.136;5.420;2023-08-08T09:01:53;101445.22;;;18.77;60.25
72061;BME280;59925;52.136;5.420;2023-08-08T09:04:20;101450.97;;;18.76;58.89
72061;BME280;59925;52.136;5.420;2023-08-08T09:06:50;101456.88;;;18.78;59.74
72061;BME280;59925;52.136;5.420;2023-08-08T09:09:17;101451.19;;;19.11;59.09
72061;BME280;59925;52.136;5.420;2023-08-08T09:11:49;101456.84;;;19.32;59.73
72061;BME280;59925;52.136;5.420;2023-08-08T09:14:25;101445.38;;;19.35;57.88
72061;BME280;59925;52.136;5.420;2023-08-08T09:16:52;101465.91;;;19.10;58.65
72061;BME280;59925;52.136;5.420;2023-08-08T09:19:20;101455.47;;;19.03;58.89
72061;BME280;59925;52.136;5.420;2023-08-08T09:21:47;101462.19;;;18.83;58.61
72061;BME280;59925;52.136;5.420;2023-08-08T09:24:15;101446.25;;;18.90;59.09
72061;BME280;59925;52.136;5.420;2023-08-08T09:26:42;101454.41;;;18.90;58.60
72061;BME280;59925;52.136;5.420;2023-08-08T09:29:10;101450.09;;;18.89;58.97
72061;BME280;59925;52.136;5.420;2023-08-08T09:31:37;101447.03;;;19.13;58.20
72061;BME280;59925;52.136;5.420;2023-08-08T09:34:04;101439.44;;;19.33;57.63
72061;BME280;59925;52.136;5.420;2023-08-08T09:36:31;101447.13;;;19.31;57.58
72061;BME280;59925;52.136;5.420;2023-08-08T09:38:59;101444.16;;;19.50;57.78
72061;BME280;59925;52.136;5.420;2023-08-08T09:41:26;101449.47;;;19.73;56.56
72061;BME280;59925;52.136;5.420;2023-08-08T09:43:53;101445.53;;;19.97;55.75
72061;BME280;59925;52.136;5.420;2023-08-08T09:46:20;101444.44;;;20.06;54.42
72061;BME280;59925;52.136;5.420;2023-08-08T09:48:47;101441.84;;;19.93;56.18
72061;BME280;59925;52.136;5.420;2023-08-08T09:51:14;101443.47;;;20.02;55.87
72061;BME280;59925;52.136;5.420;2023-08-08T09:53:41;101449.84;;;19.89;55.64
72061;BME280;59925;52.136;5.420;2023-08-08T09:56:08;101454.41;;;19.62;55.57
72061;BME280;59925;52.136;5.420;2023-08-08T09:58:35;101458.38;;;19.47;56.53
72061;BME280;59925;52.136;5.420;2023-08-08T10:01:01;101467.88;;;19.27;57.59
72061;BME280;59925;52.136;5.420;2023-08-08T10:03:31;101464.63;;;19.16;57.59
72061;BME280;59925;52.136;5.420;2023-08-08T10:06:00;101462.94;;;19.29;57.50
72061;BME280;59925;52.136;5.420;2023-08-08T10:08:27;101460.31;;;19.55;57.98
72061;BME280;59925;52.136;5.420;2023-08-08T10:10:55;101457.09;;;19.53;56.70
72061;BME280;59925;52.136;5.420;2023-08-08T10:13:23;101457.69;;;19.33;56.40
72061;BME280;59925;52.136;5.420;2023-08-08T10:15:51;101461.94;;;19.65;57.24
72061;BME280;59925;52.136;5.420;2023-08-08T10:18:18;101450.50;;;20.03;55.66
72061;BME280;59925;52.136;5.420;2023-08-08T10:20:48;101458.84;;;20.33;55.66
72061;BME280;59925;52.136;5.420;2023-08-08T10:23:16;101459.81;;;20.29;54.73
72061;BME280;59925;52.136;5.420;2023-08-08T10:25:47;101464.44;;;20.02;56.08
72061;BME280;59925;52.136;5.420;2023-08-08T10:28:19;101470.78;;;19.80;55.31
72061;BME280;59925;52.136;5.420;2023-08-08T10:30:54;101467.63;;;19.95;56.04
72061;BME280;59925;52.136;5.420;2023-08-08T10:33:24;101472.75;;;19.97;55.66
72061;BME280;59925;52.136;5.420;2023-08-08T10:35:57;101479.28;;;19.87;54.97
72061;BME280;59925;52.136;5.420;2023-08-08T10:38:25;101476.75;;;19.99;55.35
72061;BME280;59925;52.136;5.420;2023-08-08T10:40:59;101464.09;;;20.03;56.08
72061;BME280;59925;52.136;5.420;2023-08-08T10:43:27;101479.00;;;20.15;55.71
72061;BME280;59925;52.136;5.420;2023-08-08T10:46:01;101474.88;;;20.17;55.06
72061;BME280;59925;52.136;5.420;2023-08-08T10:48:50;101474.53;;;20.28;55.26
72061;BME280;59925;52.136;5.420;2023-08-08T10:51:17;101468.28;;;20.36;55.04
72061;BME280;59925;52.136;5.420;2023-08-08T10:53:43;101469.88;;;20.46;55.61
72061;BME280;59925;52.136;5.420;2023-08-08T10:56:13;101459.94;;;20.59;55.47
72061;BME280;59925;52.136;5.420;2023-08-08T10:58:41;101463.31;;;20.47;54.52
72061;BME280;59925;52.136;5.420;2023-08-08T11:01:08;101456.91;;;20.34;53.17
72061;BME280;59925;52.136;5.420;2023-08-08T11:03:37;101458.50;;;20.44;53.25
72061;BME280;59925;52.136;5.420;2023-08-08T11:06:09;101464.09;;;20.39;52.41
72061;BME280;59925;52.136;5.420;2023-08-08T11:08:37;101464.09;;;20.39;52.66
72061;BME280;59925;52.136;5.420;2023-08-08T11:11:06;101468.59;;;20.26;53.66
72061;BME280;59925;52.136;5.420;2023-08-08T11:13:33;101461.38;;;20.39;53.52
72061;BME280;59925;52.136;5.420;2023-08-08T11:16:00;101466.69;;;20.44;51.89
72061;BME280;59925;52.136;5.420;2023-08-08T11:18:29;101461.03;;;20.66;52.42
72061;BME280;59925;52.136;5.420;2023-08-08T11:20:56;101461.19;;;20.79;52.14
72061;BME280;59925;52.136;5.420;2023-08-08T11:23:45;101466.13;;;20.94;53.23
72061;BME280;59925;52.136;5.420;2023-08-08T11:26:12;101466.59;;;21.05;53.43
72061;BME280;59925;52.136;5.420;2023-08-08T11:28:49;101466.13;;;21.03;52.51
72061;BME280;59925;52.136;5.420;2023-08-08T11:31:16;101465.06;;;20.69;52.43
72061;BME280;59925;52.136;5.420;2023-08-08T11:33:46;101454.66;;;20.62;54.09
72061;BME280;59925;52.136;5.420;2023-08-08T11:36:14;101458.16;;;20.54;53.03
72061;BME280;59925;52.136;5.420;2023-08-08T11:38:42;101461.09;;;20.49;53.60
72061;BME280;59925;52.136;5.420;2023-08-08T11:41:10;101455.44;;;20.89;52.24
72061;BME280;59925;52.136;5.420;2023-08-08T11:43:39;101452.97;;;21.05;52.46
72061;BME280;59925;52.136;5.420;2023-08-08T11:46:09;101451.53;;;20.99;52.15
72061;BME280;59925;52.136;5.420;2023-08-08T11:48:37;101446.00;;;21.25;50.84
72061;BME280;59925;52.136;5.420;2023-08-08T11:51:04;101446.13;;;21.68;50.29
72061;BME280;59925;52.136;5.420;2023-08-08T11:53:31;101445.28;;;21.97;50.56
72061;BME280;59925;52.136;5.420;2023-08-08T11:55:59;101442.53;;;22.18;50.83
72061;BME280;59925;52.136;5.420;2023-08-08T11:58:26;101456.72;;;22.33;51.24
72061;BME280;59925;52.136;5.420;2023-08-08T12:00:53;101445.75;;;22.42;50.20
72061;BME280;59925;52.136;5.420;2023-08-08T12:03:21;101450.41;;;22.41;50.89
72061;BME280;59925;52.136;5.420;2023-08-08T12:05:48;101449.13;;;21.96;51.70
72061;BME280;59925;52.136;5.420;2023-08-08T12:08:18;101451.19;;;21.78;51.24
72061;BME280;59925;52.136;5.420;2023-08-08T12:10:50;101445.28;;;21.37;50.84
72061;BME280;59925;52.136;5.420;2023-08-08T12:13:23;101441.50;;;21.30;51.46
72061;BME280;59925;52.136;5.420;2023-08-08T12:15:49;101439.78;;;21.46;52.51
72061;BME280;59925;52.136;5.420;2023-08-08T12:18:18;101445.72;;;21.48;52.84
72061;BME280;59925;52.136;5.420;2023-08-08T12:20:45;101444.63;;;21.40;51.73
72061;BME280;59925;52.136;5.420;2023-08-08T12:23:13;101439.72;;;21.25;51.98
72061;BME280;59925;52.136;5.420;2023-08-08T12:25:42;101435.44;;;21.45;52.69
72061;BME280;59925;52.136;5.420;2023-08-08T12:28:08;101441.31;;;21.65;53.19
72061;BME280;59925;52.136;5.420;2023-08-08T12:30:35;101446.16;;;21.89;53.06
72061;BME280;59925;52.136;5.420;2023-08-08T12:33:01;101449.88;;;21.54;51.86
72061;BME280;59925;52.136;5.420;2023-08-08T12:35:28;101449.56;;;21.17;52.91
72061;BME280;59925;52.136;5.420;2023-08-08T12:37:54;101437.56;;;21.09;53.49
72061;BME280;59925;52.136;5.420;2023-08-08T12:40:21;101453.03;;;21.65;52.59
72061;BME280;59925;52.136;5.420;2023-08-08T12:42:48;101433.34;;;21.51;52.02
72061;BME280;59925;52.136;5.420;2023-08-08T12:45:14;101439.31;;;21.74;52.90
72061;BME280;59925;52.136;5.420;2023-08-08T12:47:41;101440.63;;;21.77;52.25